createdAt,value
2017-11-25T08:27:22.952Z,17.67
2017-11-25T08:29:54.855Z,18.20
2017-11-25T08:32:26.734Z,21.90
2017-11-25T08:34:58.634Z,17.57
2017-11-25T08:37:30.513Z,18.17
2017-11-25T08:40:02.413Z,16.67
2017-11-25T08:42:34.297Z,18.33
2017-11-25T08:45:07.204Z,17.97
2017-11-25T08:47:39.093Z,18.43
2017-11-25T08:50:11.044Z,16.70
2017-11-25T08:52:42.929Z,16.63
2017-11-25T08:55:14.842Z,19.87
2017-11-25T08:57:46.735Z,17.20
2017-11-25T09:00:18.696Z,14.70
2017-11-25T09:02:50.585Z,15.20
2017-11-25T09:05:22.494Z,15.17
2017-11-25T09:07:54.389Z,14.97
2017-11-25T09:10:26.301Z,17.80
2017-11-25T09:12:58.189Z,15.77
2017-11-25T09:15:30.088Z,14.03
2017-11-25T09:18:01.970Z,16.47
2017-11-25T09:20:34.631Z,15.30
2017-11-25T09:23:06.513Z,12.40
2017-11-25T09:25:39.178Z,10.63
2017-11-25T09:28:11.832Z,10.93
2017-11-25T09:30:43.730Z,10.00
2017-11-25T09:33:16.382Z,10.17
2017-11-25T09:35:48.291Z,9.83
2017-11-25T09:38:20.173Z,11.70
2017-11-25T09:40:52.085Z,9.73
2017-11-25T09:43:24.729Z,14.87
2017-11-25T09:45:56.638Z,7.60
2017-11-25T09:48:28.519Z,12.77
2017-11-25T09:51:00.443Z,9.10
2017-11-25T09:53:33.092Z,6.93
2017-11-25T09:56:04.989Z,6.53
2017-11-25T09:58:36.864Z,9.00
2017-11-25T10:01:08.781Z,8.63
2017-11-25T10:03:40.665Z,8.60
2017-11-25T10:06:13.361Z,8.60
2017-11-25T10:08:45.233Z,7.90
2017-11-25T10:11:17.149Z,4.93
2017-11-25T10:13:49.039Z,8.77
2017-11-25T10:16:20.948Z,9.97
2017-11-25T10:18:52.825Z,9.13
2017-11-25T10:21:24.716Z,7.93
2017-11-25T10:23:56.592Z,8.20
2017-11-25T10:26:28.509Z,7.03
2017-11-25T10:29:01.175Z,8.53
2017-11-25T10:31:33.098Z,6.40
2017-11-25T10:34:04.978Z,8.30
2017-11-25T10:36:36.975Z,8.33
2017-11-25T10:39:08.885Z,5.70
2017-11-25T10:41:40.801Z,5.07
2017-11-25T10:44:13.440Z,7.30
2017-11-25T10:46:45.353Z,8.47
2017-11-25T10:49:18.006Z,6.20
2017-11-25T10:51:49.913Z,5.60
2017-11-25T10:54:21.792Z,8.40
2017-11-25T10:56:54.492Z,6.30
2017-11-25T10:59:26.372Z,7.70
2017-11-25T11:01:58.261Z,10.23
2017-11-25T11:04:30.145Z,8.27
2017-11-25T11:07:02.066Z,4.90
2017-11-25T11:09:34.709Z,8.37
2017-11-25T11:12:06.613Z,8.00
2017-11-25T11:14:39.261Z,7.73
2017-11-25T11:17:11.173Z,9.30
2017-11-25T11:19:43.061Z,7.93
2017-11-25T11:22:14.971Z,8.90
2017-11-25T11:24:47.621Z,7.07
2017-11-25T11:27:19.520Z,8.57
2017-11-25T11:29:51.392Z,6.37
2017-11-25T11:32:23.556Z,8.50
2017-11-25T11:34:55.429Z,9.37
2017-11-25T11:37:27.336Z,8.23
2017-11-25T11:39:59.212Z,8.23
2017-11-25T11:42:31.996Z,7.83
2017-11-25T11:45:03.895Z,7.40
2017-11-25T11:47:35.802Z,7.67
2017-11-25T11:50:07.672Z,9.67
2017-11-25T11:52:40.346Z,5.73
2017-11-25T11:55:12.988Z,9.53
2017-11-25T11:57:44.892Z,9.67
2017-11-25T12:00:17.537Z,7.47
2017-11-25T12:02:49.458Z,14.10
2017-11-25T12:05:21.341Z,7.83
2017-11-25T12:07:53.249Z,7.70
2017-11-25T12:10:25.894Z,7.23
2017-11-25T12:12:57.807Z,9.50
2017-11-25T12:15:29.686Z,10.83
2017-11-25T12:18:01.593Z,8.47
2017-11-25T12:20:33.479Z,10.87
2017-11-25T12:23:06.220Z,10.20
2017-11-25T12:25:38.108Z,7.87
2017-11-25T12:28:10.786Z,10.53
2017-11-25T12:30:43.437Z,11.80
2017-11-25T12:33:15.364Z,13.07
2017-11-25T12:35:47.249Z,14.67
2017-11-25T12:38:19.141Z,11.30
2017-11-25T12:40:51.803Z,11.67
2017-11-25T12:43:23.697Z,10.40
2017-11-25T12:45:55.585Z,14.57
2017-11-25T12:48:27.497Z,9.90
2017-11-25T12:50:59.384Z,13.90
2017-11-25T12:53:31.302Z,11.80
2017-11-25T12:56:03.178Z,10.47
2017-11-25T12:58:35.069Z,12.63
2017-11-25T13:01:06.944Z,10.82
2017-11-25T13:03:38.852Z,9.03
2017-11-25T13:06:10.738Z,8.60
2017-11-25T13:08:43.425Z,11.67
2017-11-25T13:11:15.305Z,11.53
2017-11-25T13:13:47.217Z,6.93
2017-11-25T13:16:19.100Z,13.17
2017-11-25T13:18:51.004Z,12.07
2017-11-25T13:21:22.881Z,10.37
2017-11-25T13:23:54.790Z,9.60
2017-11-25T13:26:26.681Z,11.97
2017-11-25T13:28:58.577Z,11.90
2017-11-25T13:31:30.471Z,11.00
2017-11-25T13:34:02.390Z,9.57
2017-11-25T13:36:34.501Z,10.53
2017-11-25T13:39:06.411Z,11.37
2017-11-25T13:41:38.279Z,9.87
2017-11-25T13:44:10.197Z,12.13
2017-11-25T13:46:42.077Z,11.40
2017-11-25T13:49:13.994Z,12.87
2017-11-25T13:51:46.645Z,13.33
2017-11-25T13:54:18.534Z,12.37
2017-11-25T13:56:51.176Z,12.70
2017-11-25T13:59:23.078Z,11.10
2017-11-25T14:01:54.954Z,11.10
2017-11-25T14:04:27.110Z,9.03
2017-11-25T14:06:58.981Z,12.63
2017-11-25T14:09:30.917Z,12.33
2017-11-25T14:12:03.569Z,13.23
2017-11-25T14:14:35.503Z,11.47
2017-11-25T14:17:07.373Z,12.10
2017-11-25T14:19:39.273Z,13.63
2017-11-25T14:22:11.924Z,15.50
2017-11-25T14:24:43.816Z,14.73
2017-11-25T14:27:16.459Z,13.87
2017-11-25T14:29:48.369Z,14.30
2017-11-25T14:32:20.254Z,18.37
2017-11-25T14:34:52.169Z,17.87
2017-11-25T14:37:24.826Z,16.33
2017-11-25T14:39:56.731Z,19.87
2017-11-25T14:42:28.896Z,18.67
2017-11-25T14:45:00.804Z,20.13
2017-11-25T14:47:32.700Z,17.93
2017-11-25T14:50:05.386Z,17.40
2017-11-25T14:52:37.265Z,17.73
2017-11-25T14:55:09.221Z,13.90
2017-11-25T14:57:41.102Z,14.60
2017-11-25T15:00:13.014Z,20.43
2017-11-25T15:02:44.917Z,16.10
2017-11-25T15:05:16.821Z,15.93
2017-11-25T15:07:48.697Z,17.07
2017-11-25T15:10:21.369Z,19.73
2017-11-25T15:12:54.012Z,20.57
2017-11-25T15:15:25.937Z,17.73
2017-11-25T15:17:57.830Z,17.93
2017-11-25T15:20:29.965Z,18.77
2017-11-25T15:23:01.859Z,23.03
2017-11-25T15:25:33.803Z,19.50
2017-11-25T15:28:05.694Z,21.53
2017-11-25T15:30:37.613Z,19.93
2017-11-25T15:33:09.488Z,22.13
2017-11-25T15:35:41.404Z,23.07
2017-11-25T15:38:14.051Z,20.33
2017-11-25T15:40:45.969Z,19.30
2017-11-25T15:43:17.849Z,22.47
2017-11-25T15:45:49.746Z,21.53
2017-11-25T15:48:21.624Z,19.67
2017-11-25T15:50:54.293Z,21.80
2017-11-25T15:53:26.174Z,24.00
2017-11-25T15:55:58.853Z,23.17
2017-11-25T15:58:30.738Z,21.33
2017-11-25T16:01:02.648Z,23.53
2017-11-25T16:03:34.533Z,24.60
2017-11-25T16:06:07.212Z,23.13
2017-11-25T16:08:39.857Z,25.87
2017-11-25T16:11:11.769Z,23.33
2017-11-25T16:13:43.876Z,25.03
2017-11-25T16:16:15.776Z,27.40
2017-11-25T16:18:47.666Z,26.90
2017-11-25T16:21:19.712Z,27.33
2017-11-25T16:23:53.473Z,26.20
2017-11-25T16:26:25.436Z,25.17
2017-11-25T16:28:57.569Z,26.07
2017-11-25T16:31:29.497Z,23.30
2017-11-25T16:34:01.371Z,26.40
2017-11-25T16:36:34.849Z,25.07
2017-11-25T16:39:07.501Z,28.33
2017-11-25T16:41:39.397Z,32.57
2017-11-25T16:44:11.281Z,28.67
2017-11-25T16:46:44.208Z,26.23
2017-11-25T16:49:16.088Z,11.97
2017-11-25T16:51:48.752Z,9.97
2017-11-25T16:54:20.648Z,7.60
2017-11-25T16:56:52.562Z,7.70
2017-11-25T16:59:24.451Z,8.67
2017-11-25T17:01:57.109Z,8.83
2017-11-25T17:04:28.988Z,8.47
2017-11-25T17:07:01.673Z,10.77
2017-11-25T17:09:33.575Z,10.50
2017-11-25T17:12:05.477Z,15.40
2017-11-25T17:14:38.130Z,16.37
2017-11-25T17:17:10.045Z,13.57
2017-11-25T17:19:41.934Z,17.57
2017-11-25T17:22:13.836Z,13.33
2017-11-25T17:24:45.713Z,12.03
2017-11-25T17:27:18.393Z,11.63
2017-11-25T17:29:50.268Z,18.47
2017-11-25T17:32:22.164Z,11.60
2017-11-25T17:34:54.048Z,15.37
2017-11-25T17:37:25.962Z,18.27
2017-11-25T17:39:57.837Z,14.17
2017-11-25T17:42:29.736Z,14.40
2017-11-25T17:45:02.389Z,14.10
2017-11-25T17:47:34.304Z,14.70
2017-11-25T17:50:06.186Z,15.30
2017-11-25T17:52:38.088Z,13.67
2017-11-25T17:55:09.964Z,12.17
2017-11-25T17:57:42.624Z,15.50
2017-11-25T18:00:14.501Z,14.43
2017-11-25T18:02:47.173Z,17.17
2017-11-25T18:05:20.820Z,13.53
2017-11-25T18:07:52.733Z,12.20
2017-11-25T18:10:25.385Z,9.60
2017-11-25T18:13:00.086Z,15.37
2017-11-25T18:15:31.952Z,13.67
2017-11-25T18:18:03.885Z,15.00
2017-11-25T18:20:35.761Z,11.77
2017-11-25T18:23:07.660Z,11.30
2017-11-25T18:25:40.325Z,12.07
2017-11-25T18:28:12.242Z,10.27
2017-11-25T18:30:44.111Z,8.90
2017-11-25T18:33:16.018Z,9.67
2017-11-25T18:35:47.897Z,9.43
2017-11-25T18:38:20.576Z,6.87
2017-11-25T18:40:53.234Z,8.20
2017-11-25T18:43:25.116Z,11.43
2017-11-25T18:45:57.761Z,10.17
2017-11-25T18:48:29.676Z,9.27
2017-11-25T18:51:01.548Z,10.10
2017-11-25T18:53:33.453Z,10.87
2017-11-25T18:56:05.342Z,10.07
2017-11-25T18:58:38.013Z,10.67
2017-11-25T19:01:09.889Z,10.03
2017-11-25T19:03:42.548Z,10.73
2017-11-25T19:06:15.212Z,13.73
2017-11-25T19:08:47.123Z,10.27
2017-11-25T19:11:18.992Z,9.87
2017-11-25T19:13:50.888Z,13.80
2017-11-25T19:16:22.773Z,14.27
2017-11-25T19:18:54.676Z,12.40
2017-11-25T19:21:26.564Z,14.70
2017-11-25T19:23:58.464Z,11.03
2017-11-25T19:26:31.105Z,13.93
2017-11-25T19:29:03.008Z,15.93
2017-11-25T19:31:35.644Z,13.67
2017-11-25T19:34:07.540Z,15.67
2017-11-25T19:36:40.185Z,17.33
2017-11-25T19:39:12.102Z,17.90
2017-11-25T19:41:43.979Z,13.83
2017-11-25T19:44:15.885Z,13.13
2017-11-25T19:46:47.768Z,15.40
2017-11-25T19:49:20.436Z,14.80
2017-11-25T19:51:53.082Z,16.43
2017-11-25T19:54:24.996Z,16.13
2017-11-25T19:56:56.874Z,15.47
2017-11-25T19:59:28.778Z,17.40
2017-11-25T20:02:00.729Z,15.90
2017-11-25T20:04:32.628Z,19.87
2017-11-25T20:07:05.269Z,16.70
2017-11-25T20:09:37.157Z,20.53
2017-11-25T20:12:09.798Z,17.20
2017-11-25T20:14:41.704Z,21.37
2017-11-25T20:17:14.341Z,18.50
2017-11-25T20:19:46.253Z,19.13
2017-11-25T20:22:18.135Z,19.93
2017-11-25T20:24:50.286Z,21.40
2017-11-25T20:27:22.168Z,22.33
2017-11-25T20:29:54.291Z,15.70
2017-11-25T20:32:26.924Z,15.73
2017-11-25T20:34:58.829Z,17.67
2017-11-25T20:37:30.708Z,16.60
2017-11-25T20:40:02.616Z,16.53
2017-11-25T20:42:34.489Z,16.53
2017-11-25T20:45:07.268Z,17.60
2017-11-25T20:47:39.166Z,14.30
2017-11-25T20:50:11.079Z,15.10
2017-11-25T20:52:42.944Z,15.97
2017-11-25T20:55:14.857Z,15.07
2017-11-25T20:57:46.737Z,13.83
2017-11-25T21:00:18.638Z,14.37
2017-11-25T21:02:50.509Z,16.97
2017-11-25T21:05:23.190Z,19.83
2017-11-25T21:07:55.829Z,18.03
2017-11-25T21:10:27.728Z,19.27
2017-11-25T21:13:00.369Z,14.40
2017-11-25T21:15:32.279Z,16.47
2017-11-25T21:18:04.157Z,18.17
2017-11-25T21:20:36.074Z,18.97
2017-11-25T21:23:07.986Z,17.50
2017-11-25T21:25:40.777Z,16.20
2017-11-25T21:28:12.645Z,18.17
2017-11-25T21:30:44.549Z,23.10
2017-11-25T21:33:17.190Z,19.23
2017-11-25T21:35:49.088Z,18.43
2017-11-25T21:38:21.734Z,20.70
2017-11-25T21:40:53.632Z,12.43
2017-11-25T21:43:26.280Z,15.37
2017-11-25T21:45:58.181Z,16.13
2017-11-25T21:48:30.073Z,14.60
2017-11-25T21:51:02.488Z,18.70
2017-11-25T21:53:35.129Z,16.27
2017-11-25T21:56:07.032Z,17.00
2017-11-25T21:58:39.682Z,16.40
2017-11-25T22:01:11.590Z,15.30
2017-11-25T22:03:43.470Z,19.83
2017-11-25T22:06:15.365Z,17.13
2017-11-25T22:08:48.601Z,20.30
2017-11-25T22:11:20.505Z,18.57
2017-11-25T22:13:52.426Z,21.50
2017-11-25T22:16:24.331Z,26.47
2017-11-25T22:18:56.209Z,18.10
2017-11-25T22:21:28.113Z,17.60
2017-11-25T22:23:59.986Z,20.27
2017-11-25T22:26:31.868Z,19.27
2017-11-25T22:29:03.750Z,18.00
2017-11-25T22:31:35.657Z,17.77
2017-11-25T22:34:07.524Z,17.73
2017-11-25T22:36:39.422Z,22.47
2017-11-25T22:39:11.302Z,22.57
2017-11-25T22:41:43.958Z,19.80
2017-11-25T22:44:15.829Z,19.80
2017-11-25T22:46:47.717Z,21.77
2017-11-25T22:49:20.359Z,17.60
2017-11-25T22:51:52.248Z,18.47
2017-11-25T22:54:24.888Z,17.87
2017-11-25T22:56:56.788Z,21.77
